Terminal Aerodrome Forecast
Issued by NWS

Home | Current Version | Previous Version | Text Only | Print | Product List | Glossary Off
Versions: 1 2 3 4 5 6 7 8 9 10 11 12

152
FTUS43 KMPX 020520
TAFAXN
TAF
KAXN 020520Z 0206/0306 00000KT P6SM SKC
     FM021200 20006KT P6SM SCT200
     FM022300 VRB03KT P6SM SKC=

USA.gov is the U.S. government's official web portal to all federal, state and local government web resources and services.